sensor_id;sensor_type;location;lat;lon;timestamp;P1;P2;P0
55549;PMS7003;41397;49.972;18.944;2024-01-16T00:02:29;7;7;5
55549;PMS7003;41397;49.972;18.944;2024-01-16T00:05:30;8;8;5
55549;PMS7003;41397;49.972;18.944;2024-01-16T00:08:31;6;6;5
55549;PMS7003;41397;49.972;18.944;2024-01-16T00:11:32;7;7;6
55549;PMS7003;41397;49.972;18.944;2024-01-16T00:14:36;7;7;4
55549;PMS7003;41397;49.972;18.944;2024-01-16T00:17:38;7;7;5
55549;PMS7003;41397;49.972;18.944;2024-01-16T00:20:39;9;9;7
55549;PMS7003;41397;49.972;18.944;2024-01-16T00:23:40;13;13;6
55549;PMS7003;41397;49.972;18.944;2024-01-16T00:26:42;11;11;8
55549;PMS7003;41397;49.972;18.944;2024-01-16T00:29:43;7;7;5
55549;PMS7003;41397;49.972;18.944;2024-01-16T00:32:45;8;8;6
55549;PMS7003;41397;49.972;18.944;2024-01-16T00:35:46;7;7;5
55549;PMS7003;41397;49.972;18.944;2024-01-16T00:38:47;5;5;4
55549;PMS7003;41397;49.972;18.944;2024-01-16T00:41:50;8;8;6
55549;PMS7003;41397;49.972;18.944;2024-01-16T00:44:51;10;10;6
55549;PMS7003;41397;49.972;18.944;2024-01-16T00:47:52;7;7;7
55549;PMS7003;41397;49.972;18.944;2024-01-16T00:50:54;13;13;8
55549;PMS7003;41397;49.972;18.944;2024-01-16T00:53:58;8;8;6
55549;PMS7003;41397;49.972;18.944;2024-01-16T00:56:59;9;9;6
55549;PMS7003;41397;49.972;18.944;2024-01-16T01:00:01;7;7;4
55549;PMS7003;41397;49.972;18.944;2024-01-16T01:03:04;9;9;6
55549;PMS7003;41397;49.972;18.944;2024-01-16T01:06:06;5;5;3
55549;PMS7003;41397;49.972;18.944;2024-01-16T01:09:08;9;9;7
55549;PMS7003;41397;49.972;18.944;2024-01-16T01:12:12;3;3;3
55549;PMS7003;41397;49.972;18.944;2024-01-16T01:15:13;7;7;5
55549;PMS7003;41397;49.972;18.944;2024-01-16T01:18:15;10;10;8
55549;PMS7003;41397;49.972;18.944;2024-01-16T01:21:16;9;9;6
55549;PMS7003;41397;49.972;18.944;2024-01-16T01:24:17;7;7;5
55549;PMS7003;41397;49.972;18.944;2024-01-16T01:27:19;7;7;5
55549;PMS7003;41397;49.972;18.944;2024-01-16T01:30:22;10;10;7
55549;PMS7003;41397;49.972;18.944;2024-01-16T01:33:24;7;7;6
55549;PMS7003;41397;49.972;18.944;2024-01-16T01:36:25;5;5;3
55549;PMS7003;41397;49.972;18.944;2024-01-16T01:39:26;11;8;7
55549;PMS7003;41397;49.972;18.944;2024-01-16T01:42:31;5;5;1
55549;PMS7003;41397;49.972;18.944;2024-01-16T01:45:32;7;7;6
55549;PMS7003;41397;49.972;18.944;2024-01-16T01:48:33;9;9;6
55549;PMS7003;41397;49.972;18.944;2024-01-16T01:51:35;8;8;5
55549;PMS7003;41397;49.972;18.944;2024-01-16T01:54:39;6;6;4
55549;PMS7003;41397;49.972;18.944;2024-01-16T01:57:41;6;6;4
55549;PMS7003;41397;49.972;18.944;2024-01-16T02:00:43;7;7;6
55549;PMS7003;41397;49.972;18.944;2024-01-16T02:03:45;5;4;3
55549;PMS7003;41397;49.972;18.944;2024-01-16T02:06:48;8;8;6
55549;PMS7003;41397;49.972;18.944;2024-01-16T02:09:50;7;7;5
55549;PMS7003;41397;49.972;18.944;2024-01-16T02:12:51;8;8;6
55549;PMS7003;41397;49.972;18.944;2024-01-16T02:15:52;8;8;5
55549;PMS7003;41397;49.972;18.944;2024-01-16T02:18:55;8;8;4
55549;PMS7003;41397;49.972;18.944;2024-01-16T02:21:58;5;5;5
55549;PMS7003;41397;49.972;18.944;2024-01-16T02:25:01;9;9;7
55549;PMS7003;41397;49.972;18.944;2024-01-16T02:28:03;7;7;4
55549;PMS7003;41397;49.972;18.944;2024-01-16T02:31:04;6;6;5
55549;PMS7003;41397;49.972;18.944;2024-01-16T02:34:06;8;8;7
55549;PMS7003;41397;49.972;18.944;2024-01-16T02:37:07;5;5;4
55549;PMS7003;41397;49.972;18.944;2024-01-16T02:40:09;11;11;8
55549;PMS7003;41397;49.972;18.944;2024-01-16T02:43:11;7;6;6
55549;PMS7003;41397;49.972;18.944;2024-01-16T02:46:13;8;8;7
55549;PMS7003;41397;49.972;18.944;2024-01-16T02:49:17;8;8;7
55549;PMS7003;41397;49.972;18.944;2024-01-16T02:52:18;10;10;5
55549;PMS7003;41397;49.972;18.944;2024-01-16T02:55:20;11;11;8
55549;PMS7003;41397;49.972;18.944;2024-01-16T02:58:21;10;10;7
55549;PMS7003;41397;49.972;18.944;2024-01-16T03:01:22;10;10;7
55549;PMS7003;41397;49.972;18.944;2024-01-16T03:04:23;13;12;7
55549;PMS7003;41397;49.972;18.944;2024-01-16T03:07:27;8;8;6
55549;PMS7003;41397;49.972;18.944;2024-01-16T03:10:28;9;7;4
55549;PMS7003;41397;49.972;18.944;2024-01-16T03:13:29;7;7;6
55549;PMS7003;41397;49.972;18.944;2024-01-16T03:16:31;7;7;2
55549;PMS7003;41397;49.972;18.944;2024-01-16T03:19:35;4;4;3
55549;PMS7003;41397;49.972;18.944;2024-01-16T03:22:37;7;7;5
55549;PMS7003;41397;49.972;18.944;2024-01-16T03:25:38;7;7;6
55549;PMS7003;41397;49.972;18.944;2024-01-16T03:28:40;7;7;6
55549;PMS7003;41397;49.972;18.944;2024-01-16T03:31:43;1;1;0
55549;PMS7003;41397;49.972;18.944;2024-01-16T03:34:44;7;7;5
55549;PMS7003;41397;49.972;18.944;2024-01-16T03:37:46;3;3;2
55549;PMS7003;41397;49.972;18.944;2024-01-16T03:40:47;7;7;6
55549;PMS7003;41397;49.972;18.944;2024-01-16T03:43:51;6;6;5
55549;PMS7003;41397;49.972;18.944;2024-01-16T03:46:57;8;8;7
55549;PMS7003;41397;49.972;18.944;2024-01-16T03:49:58;6;6;5
55549;PMS7003;41397;49.972;18.944;2024-01-16T03:52:59;6;6;6
55549;PMS7003;41397;49.972;18.944;2024-01-16T03:56:00;5;5;4
55549;PMS7003;41397;49.972;18.944;2024-01-16T03:59:02;5;5;4
55549;PMS7003;41397;49.972;18.944;2024-01-16T04:02:04;3;3;2
55549;PMS7003;41397;49.972;18.944;2024-01-16T04:05:06;7;7;6
55549;PMS7003;41397;49.972;18.944;2024-01-16T04:08:08;7;7;5
55549;PMS7003;41397;49.972;18.944;2024-01-16T04:11:12;5;5;5
55549;PMS7003;41397;49.972;18.944;2024-01-16T04:14:14;7;7;4
55549;PMS7003;41397;49.972;18.944;2024-01-16T04:17:15;8;8;6
55549;PMS7003;41397;49.972;18.944;2024-01-16T04:20:16;6;6;4
55549;PMS7003;41397;49.972;18.944;2024-01-16T04:23:17;6;6;5
55549;PMS7003;41397;49.972;18.944;2024-01-16T04:26:18;9;9;7
55549;PMS7003;41397;49.972;18.944;2024-01-16T04:29:20;7;7;6
55549;PMS7003;41397;49.972;18.944;2024-01-16T04:32:24;11;11;9
55549;PMS7003;41397;49.972;18.944;2024-01-16T04:35:25;7;7;6
55549;PMS7003;41397;49.972;18.944;2024-01-16T04:38:26;10;10;7
55549;PMS7003;41397;49.972;18.944;2024-01-16T04:41:27;5;5;5
55549;PMS7003;41397;49.972;18.944;2024-01-16T04:44:32;2;2;2
55549;PMS7003;41397;49.972;18.944;2024-01-16T04:47:33;7;7;6
55549;PMS7003;41397;49.972;18.944;2024-01-16T04:50:35;7;7;5
55549;PMS7003;41397;49.972;18.944;2024-01-16T04:53:36;7;7;6
55549;PMS7003;41397;49.972;18.944;2024-01-16T04:56:40;8;8;6
55549;PMS7003;41397;49.972;18.944;2024-01-16T04:59:41;6;6;3
55549;PMS7003;41397;49.972;18.944;2024-01-16T05:02:42;11;11;8
55549;PMS7003;41397;49.972;18.944;2024-01-16T05:05:44;8;8;6
55549;PMS7003;41397;49.972;18.944;2024-01-16T05:08:48;10;10;7
55549;PMS7003;41397;49.972;18.944;2024-01-16T05:11:49;4;4;3
55549;PMS7003;41397;49.972;18.944;2024-01-16T05:14:50;13;13;10
55549;PMS7003;41397;49.972;18.944;2024-01-16T05:17:52;19;19;12
55549;PMS7003;41397;49.972;18.944;2024-01-16T05:20:56;10;10;8
55549;PMS7003;41397;49.972;18.944;2024-01-16T05:23:57;4;4;4
55549;PMS7003;41397;49.972;18.944;2024-01-16T05:26:59;9;9;7
55549;PMS7003;41397;49.972;18.944;2024-01-16T05:30:00;7;7;7
55549;PMS7003;41397;49.972;18.944;2024-01-16T05:33:04;12;12;8
55549;PMS7003;41397;49.972;18.944;2024-01-16T05:36:06;12;12;9
55549;PMS7003;41397;49.972;18.944;2024-01-16T05:39:08;13;13;9
55549;PMS7003;41397;49.972;18.944;2024-01-16T05:42:09;9;9;6
55549;PMS7003;41397;49.972;18.944;2024-01-16T05:45:12;10;10;8
55549;PMS7003;41397;49.972;18.944;2024-01-16T05:48:14;6;6;3
55549;PMS7003;41397;49.972;18.944;2024-01-16T05:51:15;9;9;5
55549;PMS7003;41397;49.972;18.944;2024-01-16T05:54:17;6;6;6
55549;PMS7003;41397;49.972;18.944;2024-01-16T05:57:20;7;7;6
55549;PMS7003;41397;49.972;18.944;2024-01-16T06:00:21;10;10;6
55549;PMS7003;41397;49.972;18.944;2024-01-16T06:03:23;9;9;7
55549;PMS7003;41397;49.972;18.944;2024-01-16T06:06:25;7;7;6
55549;PMS7003;41397;49.972;18.944;2024-01-16T06:09:28;11;11;8
55549;PMS7003;41397;49.972;18.944;2024-01-16T06:12:30;9;9;6
55549;PMS7003;41397;49.972;18.944;2024-01-16T06:15:31;11;10;8
55549;PMS7003;41397;49.972;18.944;2024-01-16T06:18:32;10;10;8
55549;PMS7003;41397;49.972;18.944;2024-01-16T06:21:37;8;7;4
55549;PMS7003;41397;49.972;18.944;2024-01-16T06:24:41;11;11;9
55549;PMS7003;41397;49.972;18.944;2024-01-16T06:27:42;8;8;6
55549;PMS7003;41397;49.972;18.944;2024-01-16T06:30:43;11;11;6
55549;PMS7003;41397;49.972;18.944;2024-01-16T06:33:45;8;8;4
55549;PMS7003;41397;49.972;18.944;2024-01-16T06:36:46;9;9;8
55549;PMS7003;41397;49.972;18.944;2024-01-16T06:39:47;13;12;10
55549;PMS7003;41397;49.972;18.944;2024-01-16T06:42:48;9;9;8
55549;PMS7003;41397;49.972;18.944;2024-01-16T06:45:53;10;10;8
55549;PMS7003;41397;49.972;18.944;2024-01-16T06:48:54;11;11;9
55549;PMS7003;41397;49.972;18.944;2024-01-16T06:51:55;13;12;9
55549;PMS7003;41397;49.972;18.944;2024-01-16T06:54:58;12;12;9
55549;PMS7003;41397;49.972;18.944;2024-01-16T06:58:01;10;10;8
55549;PMS7003;41397;49.972;18.944;2024-01-16T07:01:03;12;12;10
55549;PMS7003;41397;49.972;18.944;2024-01-16T07:04:04;10;10;8
55549;PMS7003;41397;49.972;18.944;2024-01-16T07:07:05;7;7;6
55549;PMS7003;41397;49.972;18.944;2024-01-16T07:10:09;7;7;6
55549;PMS7003;41397;49.972;18.944;2024-01-16T07:13:18;7;7;5
55549;PMS7003;41397;49.972;18.944;2024-01-16T07:16:20;4;4;2
55549;PMS7003;41397;49.972;18.944;2024-01-16T07:19:21;6;6;5
55549;PMS7003;41397;49.972;18.944;2024-01-16T07:22:22;6;6;4
55549;PMS7003;41397;49.972;18.944;2024-01-16T07:25:24;4;4;3
55549;PMS7003;41397;49.972;18.944;2024-01-16T07:28:25;6;6;3
55549;PMS7003;41397;49.972;18.944;2024-01-16T07:31:26;5;5;3
55549;PMS7003;41397;49.972;18.944;2024-01-16T07:34:27;13;12;8
55549;PMS7003;41397;49.972;18.944;2024-01-16T07:37:29;7;7;5
55549;PMS7003;41397;49.972;18.944;2024-01-16T07:40:31;7;7;5
55549;PMS7003;41397;49.972;18.944;2024-01-16T07:43:32;12;12;7
55549;PMS7003;41397;49.972;18.944;2024-01-16T07:46:34;9;9;7
55549;PMS7003;41397;49.972;18.944;2024-01-16T07:49:35;8;8;7
55549;PMS7003;41397;49.972;18.944;2024-01-16T07:52:37;8;8;6
55549;PMS7003;41397;49.972;18.944;2024-01-16T07:55:38;8;8;7
55549;PMS7003;41397;49.972;18.944;2024-01-16T07:58:41;7;7;6
55549;PMS7003;41397;49.972;18.944;2024-01-16T08:01:43;8;8;6
55549;PMS7003;41397;49.972;18.944;2024-01-16T08:04:44;17;8;6
55549;PMS7003;41397;49.972;18.944;2024-01-16T08:07:46;5;5;4
55549;PMS7003;41397;49.972;18.944;2024-01-16T08:10:49;6;6;3
55549;PMS7003;41397;49.972;18.944;2024-01-16T08:13:51;5;5;3
55549;PMS7003;41397;49.972;18.944;2024-01-16T08:16:52;6;6;4
55549;PMS7003;41397;49.972;18.944;2024-01-16T08:19:53;7;7;5
55549;PMS7003;41397;49.972;18.944;2024-01-16T08:22:57;4;4;3
55549;PMS7003;41397;49.972;18.944;2024-01-16T08:25:59;7;7;5
55549;PMS7003;41397;49.972;18.944;2024-01-16T08:29:01;5;5;4
55549;PMS7003;41397;49.972;18.944;2024-01-16T08:32:02;6;6;3
55549;PMS7003;41397;49.972;18.944;2024-01-16T08:35:06;7;7;5
55549;PMS7003;41397;49.972;18.944;2024-01-16T08:38:07;7;7;6
55549;PMS7003;41397;49.972;18.944;2024-01-16T08:41:09;3;3;3
55549;PMS7003;41397;49.972;18.944;2024-01-16T08:44:10;14;14;9
55549;PMS7003;41397;49.972;18.944;2024-01-16T08:47:14;9;9;5
55549;PMS7003;41397;49.972;18.944;2024-01-16T08:50:15;13;9;6
55549;PMS7003;41397;49.972;18.944;2024-01-16T08:53:17;6;6;5
55549;PMS7003;41397;49.972;18.944;2024-01-16T08:56:18;7;7;6
55549;PMS7003;41397;49.972;18.944;2024-01-16T08:59:22;6;6;4
55549;PMS7003;41397;49.972;18.944;2024-01-16T09:02:24;8;8;4
55549;PMS7003;41397;49.972;18.944;2024-01-16T09:05:29;8;8;7
55549;PMS7003;41397;49.972;18.944;2024-01-16T09:08:31;7;7;4
55549;PMS7003;41397;49.972;18.944;2024-01-16T09:11:32;6;6;5
55549;PMS7003;41397;49.972;18.944;2024-01-16T09:14:35;7;7;4
55549;PMS7003;41397;49.972;18.944;2024-01-16T09:17:36;7;7;5
55549;PMS7003;41397;49.972;18.944;2024-01-16T09:20:37;7;7;6
55549;PMS7003;41397;49.972;18.944;2024-01-16T09:23:38;3;3;2
55549;PMS7003;41397;49.972;18.944;2024-01-16T09:26:40;6;6;5
55549;PMS7003;41397;49.972;18.944;2024-01-16T09:29:41;4;4;3
55549;PMS7003;41397;49.972;18.944;2024-01-16T09:32:42;6;6;4
55549;PMS7003;41397;49.972;18.944;2024-01-16T09:35:46;5;5;4
55549;PMS7003;41397;49.972;18.944;2024-01-16T09:38:48;6;6;4
55549;PMS7003;41397;49.972;18.944;2024-01-16T09:41:49;4;4;3
55549;PMS7003;41397;49.972;18.944;2024-01-16T09:44:51;6;6;5
55549;PMS7003;41397;49.972;18.944;2024-01-16T09:47:54;5;5;4
55549;PMS7003;41397;49.972;18.944;2024-01-16T09:50:57;4;4;3
55549;PMS7003;41397;49.972;18.944;2024-01-16T09:53:58;7;7;6
55549;PMS7003;41397;49.972;18.944;2024-01-16T09:57:02;9;6;5
55549;PMS7003;41397;49.972;18.944;2024-01-16T10:00:08;3;3;2
55549;PMS7003;41397;49.972;18.944;2024-01-16T10:03:21;3;3;3
55549;PMS7003;41397;49.972;18.944;2024-01-16T10:06:22;3;3;2
55549;PMS7003;41397;49.972;18.944;2024-01-16T10:09:28;5;5;3
55549;PMS7003;41397;49.972;18.944;2024-01-16T10:12:30;6;6;4
55549;PMS7003;41397;49.972;18.944;2024-01-16T10:15:32;6;6;4
55549;PMS7003;41397;49.972;18.944;2024-01-16T10:18:34;4;4;3
55549;PMS7003;41397;49.972;18.944;2024-01-16T10:21:37;7;7;4
55549;PMS7003;41397;49.972;18.944;2024-01-16T10:24:39;8;8;7
55549;PMS7003;41397;49.972;18.944;2024-01-16T10:27:42;10;10;9
55549;PMS7003;41397;49.972;18.944;2024-01-16T10:30:44;12;12;5
55549;PMS7003;41397;49.972;18.944;2024-01-16T10:33:45;10;10;7
55549;PMS7003;41397;49.972;18.944;2024-01-16T10:36:48;7;7;5
55549;PMS7003;41397;49.972;18.944;2024-01-16T10:39:51;7;7;4
55549;PMS7003;41397;49.972;18.944;2024-01-16T10:49:09;7;7;6
55549;PMS7003;41397;49.972;18.944;2024-01-16T10:52:10;9;9;7
55549;PMS7003;41397;49.972;18.944;2024-01-16T10:55:17;15;13;8
55549;PMS7003;41397;49.972;18.944;2024-01-16T10:58:22;14;14;11
55549;PMS7003;41397;49.972;18.944;2024-01-16T11:01:25;9;9;5
55549;PMS7003;41397;49.972;18.944;2024-01-16T11:04:28;7;7;5
55549;PMS7003;41397;49.972;18.944;2024-01-16T11:07:30;7;7;7
55549;PMS7003;41397;49.972;18.944;2024-01-16T11:10:32;10;10;6
55549;PMS7003;41397;49.972;18.944;2024-01-16T11:13:34;8;8;5
55549;PMS7003;41397;49.972;18.944;2024-01-16T11:16:36;6;6;5
55549;PMS7003;41397;49.972;18.944;2024-01-16T11:19:38;4;4;3
55549;PMS7003;41397;49.972;18.944;2024-01-16T11:22:40;4;4;2
55549;PMS7003;41397;49.972;18.944;2024-01-16T11:25:42;5;5;4
55549;PMS7003;41397;49.972;18.944;2024-01-16T11:28:44;3;3;3
55549;PMS7003;41397;49.972;18.944;2024-01-16T11:31:46;9;9;8
55549;PMS7003;41397;49.972;18.944;2024-01-16T11:34:53;7;7;5
55549;PMS7003;41397;49.972;18.944;2024-01-16T11:37:56;3;3;3
55549;PMS7003;41397;49.972;18.944;2024-01-16T11:41:06;5;5;4
55549;PMS7003;41397;49.972;18.944;2024-01-16T11:44:07;6;6;4
55549;PMS7003;41397;49.972;18.944;2024-01-16T11:47:19;5;5;3
55549;PMS7003;41397;49.972;18.944;2024-01-16T11:50:28;2;2;1
55549;PMS7003;41397;49.972;18.944;2024-01-16T11:53:33;8;8;7
55549;PMS7003;41397;49.972;18.944;2024-01-16T11:56:41;4;4;2
55549;PMS7003;41397;49.972;18.944;2024-01-16T12:03:02;3;3;2
55549;PMS7003;41397;49.972;18.944;2024-01-16T12:06:05;2;2;1
55549;PMS7003;41397;49.972;18.944;2024-01-16T12:12:18;4;4;2
55549;PMS7003;41397;49.972;18.944;2024-01-16T12:15:21;1;1;0
55549;PMS7003;41397;49.972;18.944;2024-01-16T12:18:23;1;1;0
55549;PMS7003;41397;49.972;18.944;2024-01-16T12:21:24;2;2;0
55549;PMS7003;41397;49.972;18.944;2024-01-16T12:24:25;1;1;0
55549;PMS7003;41397;49.972;18.944;2024-01-16T12:27:26;1;1;0
55549;PMS7003;41397;49.972;18.944;2024-01-16T12:30:28;3;3;3
55549;PMS7003;41397;49.972;18.944;2024-01-16T12:33:30;4;4;3
55549;PMS7003;41397;49.972;18.944;2024-01-16T12:36:32;6;6;4
55549;PMS7003;41397;49.972;18.944;2024-01-16T12:39:34;4;4;4
55549;PMS7003;41397;49.972;18.944;2024-01-16T12:42:36;8;8;7
55549;PMS7003;41397;49.972;18.944;2024-01-16T12:45:37;10;10;6
55549;PMS7003;41397;49.972;18.944;2024-01-16T12:48:39;13;13;7
55549;PMS7003;41397;49.972;18.944;2024-01-16T12:51:40;16;16;9
55549;PMS7003;41397;49.972;18.944;2024-01-16T12:54:41;18;18;11
55549;PMS7003;41397;49.972;18.944;2024-01-16T12:57:42;11;11;7
55549;PMS7003;41397;49.972;18.944;2024-01-16T13:00:44;19;19;10
55549;PMS7003;41397;49.972;18.944;2024-01-16T13:03:49;13;13;10
55549;PMS7003;41397;49.972;18.944;2024-01-16T13:10:12;13;12;9
55549;PMS7003;41397;49.972;18.944;2024-01-16T13:13:23;14;13;9
55549;PMS7003;41397;49.972;18.944;2024-01-16T13:16:24;14;14;10
55549;PMS7003;41397;49.972;18.944;2024-01-16T13:19:25;16;16;11
55549;PMS7003;41397;49.972;18.944;2024-01-16T13:22:27;23;23;16
55549;PMS7003;41397;49.972;18.944;2024-01-16T13:25:31;21;21;16
55549;PMS7003;41397;49.972;18.944;2024-01-16T13:28:32;21;21;15
55549;PMS7003;41397;49.972;18.944;2024-01-16T13:31:33;20;20;15
55549;PMS7003;41397;49.972;18.944;2024-01-16T13:34:35;9;9;8
55549;PMS7003;41397;49.972;18.944;2024-01-16T13:37:39;16;16;10
55549;PMS7003;41397;49.972;18.944;2024-01-16T13:40:41;17;17;12
55549;PMS7003;41397;49.972;18.944;2024-01-16T13:43:42;19;19;15
55549;PMS7003;41397;49.972;18.944;2024-01-16T13:46:44;33;30;19
55549;PMS7003;41397;49.972;18.944;2024-01-16T13:49:47;45;36;23
55549;PMS7003;41397;49.972;18.944;2024-01-16T13:52:48;27;26;16
55549;PMS7003;41397;49.972;18.944;2024-01-16T13:55:50;16;16;9
55549;PMS7003;41397;49.972;18.944;2024-01-16T13:58:51;15;10;8
55549;PMS7003;41397;49.972;18.944;2024-01-16T14:01:55;3;3;3
55549;PMS7003;41397;49.972;18.944;2024-01-16T14:04:56;5;5;5
55549;PMS7003;41397;49.972;18.944;2024-01-16T14:07:58;15;14;7
55549;PMS7003;41397;49.972;18.944;2024-01-16T14:10:59;10;10;7
55549;PMS7003;41397;49.972;18.944;2024-01-16T14:14:03;14;14;11
55549;PMS7003;41397;49.972;18.944;2024-01-16T14:17:05;11;11;6
55549;PMS7003;41397;49.972;18.944;2024-01-16T14:20:07;12;12;8
55549;PMS7003;41397;49.972;18.944;2024-01-16T14:23:12;9;9;6
55549;PMS7003;41397;49.972;18.944;2024-01-16T14:26:13;12;12;10
55549;PMS7003;41397;49.972;18.944;2024-01-16T14:29:18;14;14;9
55549;PMS7003;41397;49.972;18.944;2024-01-16T14:32:19;14;14;9
55549;PMS7003;41397;49.972;18.944;2024-01-16T14:35:20;16;16;12
55549;PMS7003;41397;49.972;18.944;2024-01-16T14:38:22;22;22;15
55549;PMS7003;41397;49.972;18.944;2024-01-16T14:41:23;16;16;12
55549;PMS7003;41397;49.972;18.944;2024-01-16T14:44:24;34;29;19
55549;PMS7003;41397;49.972;18.944;2024-01-16T14:47:25;28;26;17
55549;PMS7003;41397;49.972;18.944;2024-01-16T14:50:28;28;27;17
55549;PMS7003;41397;49.972;18.944;2024-01-16T14:53:30;23;23;13
55549;PMS7003;41397;49.972;18.944;2024-01-16T14:56:32;14;14;9
55549;PMS7003;41397;49.972;18.944;2024-01-16T14:59:34;17;17;12
55549;PMS7003;41397;49.972;18.944;2024-01-16T15:02:37;12;12;10
55549;PMS7003;41397;49.972;18.944;2024-01-16T15:05:38;10;10;8
55549;PMS7003;41397;49.972;18.944;2024-01-16T15:08:40;5;5;4
55549;PMS7003;41397;49.972;18.944;2024-01-16T15:11:42;5;5;4
55549;PMS7003;41397;49.972;18.944;2024-01-16T15:14:45;4;4;4
55549;PMS7003;41397;49.972;18.944;2024-01-16T15:17:46;7;7;5
55549;PMS7003;41397;49.972;18.944;2024-01-16T15:20:49;9;9;6
55549;PMS7003;41397;49.972;18.944;2024-01-16T15:23:50;7;7;4
55549;PMS7003;41397;49.972;18.944;2024-01-16T15:26:53;9;9;8
55549;PMS7003;41397;49.972;18.944;2024-01-16T15:29:57;9;9;5
55549;PMS7003;41397;49.972;18.944;2024-01-16T15:33:00;7;7;5
55549;PMS7003;41397;49.972;18.944;2024-01-16T15:36:06;5;5;5
55549;PMS7003;41397;49.972;18.944;2024-01-16T15:39:07;6;6;5
55549;PMS7003;41397;49.972;18.944;2024-01-16T15:42:08;6;6;5
55549;PMS7003;41397;49.972;18.944;2024-01-16T15:45:10;4;4;3
55549;PMS7003;41397;49.972;18.944;2024-01-16T15:48:11;9;9;6
55549;PMS7003;41397;49.972;18.944;2024-01-16T15:51:14;5;5;4
55549;PMS7003;41397;49.972;18.944;2024-01-16T15:54:16;8;8;6
55549;PMS7003;41397;49.972;18.944;2024-01-16T15:57:17;9;9;6
55549;PMS7003;41397;49.972;18.944;2024-01-16T16:00:19;8;8;7
55549;PMS7003;41397;49.972;18.944;2024-01-16T16:03:23;9;9;6
55549;PMS7003;41397;49.972;18.944;2024-01-16T16:06:24;18;18;10
55549;PMS7003;41397;49.972;18.944;2024-01-16T16:09:26;12;12;8
55549;PMS7003;41397;49.972;18.944;2024-01-16T16:12:29;13;13;8
55549;PMS7003;41397;49.972;18.944;2024-01-16T16:15:30;21;21;9
55549;PMS7003;41397;49.972;18.944;2024-01-16T16:18:32;22;16;11
55549;PMS7003;41397;49.972;18.944;2024-01-16T16:21:37;27;23;15
55549;PMS7003;41397;49.972;18.944;2024-01-16T16:27:22;38;32;22
55549;PMS7003;41397;49.972;18.944;2024-01-16T16:30:25;39;32;20
55549;PMS7003;41397;49.972;18.944;2024-01-16T16:33:26;24;22;15
55549;PMS7003;41397;49.972;18.944;2024-01-16T16:36:27;41;33;20
55549;PMS7003;41397;49.972;18.944;2024-01-16T16:39:29;28;26;18
55549;PMS7003;41397;49.972;18.944;2024-01-16T16:42:31;29;27;19
55549;PMS7003;41397;49.972;18.944;2024-01-16T16:45:32;39;34;20
55549;PMS7003;41397;49.972;18.944;2024-01-16T16:48:35;39;31;17
55549;PMS7003;41397;49.972;18.944;2024-01-16T16:51:36;34;28;17
55549;PMS7003;41397;49.972;18.944;2024-01-16T16:54:43;33;30;18
55549;PMS7003;41397;49.972;18.944;2024-01-16T16:57:48;22;22;15
55549;PMS7003;41397;49.972;18.944;2024-01-16T17:00:49;36;30;21
55549;PMS7003;41397;49.972;18.944;2024-01-16T17:03:50;44;38;24
55549;PMS7003;41397;49.972;18.944;2024-01-16T17:06:52;56;38;25
55549;PMS7003;41397;49.972;18.944;2024-01-16T17:09:55;58;45;29
55549;PMS7003;41397;49.972;18.944;2024-01-16T17:12:57;49;40;25
55549;PMS7003;41397;49.972;18.944;2024-01-16T17:15:58;55;43;24
55549;PMS7003;41397;49.972;18.944;2024-01-16T17:19:00;46;36;23
55549;PMS7003;41397;49.972;18.944;2024-01-16T17:22:01;45;37;24
55549;PMS7003;41397;49.972;18.944;2024-01-16T17:25:03;51;41;25
55549;PMS7003;41397;49.972;18.944;2024-01-16T17:28:06;46;39;25
55549;PMS7003;41397;49.972;18.944;2024-01-16T17:31:08;54;41;26
55549;PMS7003;41397;49.972;18.944;2024-01-16T17:34:15;136;120;63
55549;PMS7003;41397;49.972;18.944;2024-01-16T17:37:18;61;53;29
55549;PMS7003;41397;49.972;18.944;2024-01-16T17:40:19;63;56;30
55549;PMS7003;41397;49.972;18.944;2024-01-16T17:43:20;68;62;36
55549;PMS7003;41397;49.972;18.944;2024-01-16T17:46:22;58;48;30
55549;PMS7003;41397;49.972;18.944;2024-01-16T17:49:23;48;37;24
55549;PMS7003;41397;49.972;18.944;2024-01-16T17:52:24;59;52;29
55549;PMS7003;41397;49.972;18.944;2024-01-16T17:55:26;72;54;33
55549;PMS7003;41397;49.972;18.944;2024-01-16T17:58:34;59;45;27
55549;PMS7003;41397;49.972;18.944;2024-01-16T18:01:35;55;44;27
55549;PMS7003;41397;49.972;18.944;2024-01-16T18:04:43;51;42;26
55549;PMS7003;41397;49.972;18.944;2024-01-16T18:07:45;54;43;26
55549;PMS7003;41397;49.972;18.944;2024-01-16T18:10:46;55;44;27
55549;PMS7003;41397;49.972;18.944;2024-01-16T18:13:53;49;41;27
55549;PMS7003;41397;49.972;18.944;2024-01-16T18:16:55;60;45;29
55549;PMS7003;41397;49.972;18.944;2024-01-16T18:19:56;54;45;31
55549;PMS7003;41397;49.972;18.944;2024-01-16T18:23:00;63;51;34
55549;PMS7003;41397;49.972;18.944;2024-01-16T18:26:06;67;55;31
55549;PMS7003;41397;49.972;18.944;2024-01-16T18:29:08;62;53;32
55549;PMS7003;41397;49.972;18.944;2024-01-16T18:32:10;63;57;33
55549;PMS7003;41397;49.972;18.944;2024-01-16T18:35:14;59;47;31
55549;PMS7003;41397;49.972;18.944;2024-01-16T18:38:19;54;44;26
55549;PMS7003;41397;49.972;18.944;2024-01-16T18:41:21;55;45;28
55549;PMS7003;41397;49.972;18.944;2024-01-16T18:44:28;50;42;27
55549;PMS7003;41397;49.972;18.944;2024-01-16T18:47:32;57;45;30
55549;PMS7003;41397;49.972;18.944;2024-01-16T18:50:33;62;49;28
55549;PMS7003;41397;49.972;18.944;2024-01-16T18:53:35;48;40;27
55549;PMS7003;41397;49.972;18.944;2024-01-16T18:56:36;50;41;27
55549;PMS7003;41397;49.972;18.944;2024-01-16T18:59:38;51;42;27
55549;PMS7003;41397;49.972;18.944;2024-01-16T19:02:40;70;51;31
55549;PMS7003;41397;49.972;18.944;2024-01-16T19:05:42;61;49;27
55549;PMS7003;41397;49.972;18.944;2024-01-16T19:08:44;69;58;34
55549;PMS7003;41397;49.972;18.944;2024-01-16T19:11:48;63;56;31
55549;PMS7003;41397;49.972;18.944;2024-01-16T19:14:50;78;64;41
55549;PMS7003;41397;49.972;18.944;2024-01-16T19:17:51;63;51;33
55549;PMS7003;41397;49.972;18.944;2024-01-16T19:20:55;69;57;34
55549;PMS7003;41397;49.972;18.944;2024-01-16T19:23:56;73;59;35
55549;PMS7003;41397;49.972;18.944;2024-01-16T19:26:58;76;71;40
55549;PMS7003;41397;49.972;18.944;2024-01-16T19:30:00;82;67;40
55549;PMS7003;41397;49.972;18.944;2024-01-16T19:33:06;65;52;31
55549;PMS7003;41397;49.972;18.944;2024-01-16T19:36:10;68;60;32
55549;PMS7003;41397;49.972;18.944;2024-01-16T19:39:12;73;58;36
55549;PMS7003;41397;49.972;18.944;2024-01-16T19:42:17;58;49;29
55549;PMS7003;41397;49.972;18.944;2024-01-16T19:45:19;56;45;27
55549;PMS7003;41397;49.972;18.944;2024-01-16T19:48:28;63;49;28
55549;PMS7003;41397;49.972;18.944;2024-01-16T19:51:29;65;50;28
55549;PMS7003;41397;49.972;18.944;2024-01-16T19:54:30;64;52;34
55549;PMS7003;41397;49.972;18.944;2024-01-16T19:57:33;57;45;24
55549;PMS7003;41397;49.972;18.944;2024-01-16T20:00:36;73;62;43
55549;PMS7003;41397;49.972;18.944;2024-01-16T20:03:43;87;73;42
55549;PMS7003;41397;49.972;18.944;2024-01-16T20:06:44;81;75;40